createdAt,value
2018-05-27T00:00:49.489Z,93.45
2018-05-27T00:01:49.426Z,94.89
2018-05-27T00:02:49.342Z,96.51
2018-05-27T00:03:49.278Z,97.18
2018-05-27T00:04:49.193Z,96.99
2018-05-27T00:05:49.131Z,96.80
2018-05-27T00:06:49.049Z,96.80
2018-05-27T00:07:48.991Z,97.28
2018-05-27T00:08:48.902Z,97.56
2018-05-27T00:09:48.840Z,97.18
2018-05-27T00:10:48.759Z,98.04
2018-05-27T00:11:48.691Z,98.71
2018-05-27T00:12:48.616Z,97.75
2018-05-27T00:13:48.564Z,97.28
2018-05-27T00:14:48.463Z,97.56
2018-05-27T00:15:48.399Z,97.85
2018-05-27T00:16:48.320Z,98.90
2018-05-27T00:17:48.248Z,99.00
2018-05-27T00:18:48.171Z,99.38
2018-05-27T00:19:48.107Z,99.19
2018-05-27T00:20:48.026Z,99.29
2018-05-27T00:21:47.970Z,99.10
2018-05-27T00:22:47.875Z,97.95
2018-05-27T00:23:47.815Z,97.08
2018-05-27T00:24:47.733Z,96.13
2018-05-27T00:25:47.669Z,92.88
2018-05-27T00:26:47.631Z,91.25
2018-05-27T00:27:47.519Z,90.67
2018-05-27T00:28:47.439Z,92.49
2018-05-27T00:29:47.372Z,95.36
2018-05-27T00:30:47.298Z,97.95
2018-05-27T00:31:47.224Z,98.24
2018-05-27T00:32:47.148Z,98.43
2018-05-27T00:33:47.082Z,97.75
2018-05-27T00:34:47.001Z,98.43
2018-05-27T00:35:46.934Z,98.14
2018-05-27T00:36:46.851Z,98.52
2018-05-27T00:37:46.789Z,98.61
2018-05-27T00:38:46.706Z,97.75
2018-05-27T00:39:46.650Z,97.75
2018-05-27T00:40:46.560Z,97.47
2018-05-27T00:41:46.496Z,96.22
2018-05-27T00:42:46.418Z,93.84
2018-05-27T00:43:46.346Z,93.84
2018-05-27T00:44:46.268Z,94.89
2018-05-27T00:45:46.196Z,94.31
2018-05-27T00:46:46.120Z,94.89
2018-05-27T00:47:46.059Z,95.75
2018-05-27T00:48:45.972Z,96.51
2018-05-27T00:49:45.916Z,96.51
2018-05-27T00:50:45.826Z,97.37
2018-05-27T00:51:45.760Z,95.84
2018-05-27T00:52:45.677Z,94.79
2018-05-27T00:53:45.607Z,93.84
2018-05-27T00:54:45.532Z,94.12
2018-05-27T00:55:45.480Z,94.89
2018-05-27T00:56:45.387Z,94.50
2018-05-27T00:57:45.319Z,92.97
2018-05-27T00:58:45.237Z,92.21
2018-05-27T00:59:45.177Z,92.30
2018-05-27T01:00:45.091Z,93.84
2018-05-27T01:01:45.030Z,96.32
2018-05-27T01:02:44.943Z,97.18
2018-05-27T01:03:44.875Z,96.32
2018-05-27T01:04:44.794Z,96.75
2018-05-27T01:05:44.734Z,97.52
2018-05-27T01:06:44.649Z,97.90
2018-05-27T01:07:44.587Z,97.80
2018-05-27T01:08:44.508Z,98.85
2018-05-27T01:09:44.436Z,98.85
2018-05-27T01:10:44.354Z,99.71
2018-05-27T01:11:44.294Z,99.57
2018-05-27T01:12:44.215Z,99.57
2018-05-27T01:13:44.141Z,99.19
2018-05-27T01:14:44.062Z,97.56
2018-05-27T01:15:43.995Z,96.80
2018-05-27T01:16:43.913Z,96.13
2018-05-27T01:17:43.845Z,94.21
2018-05-27T01:18:43.763Z,92.16
2018-05-27T01:19:43.701Z,90.92
2018-05-27T01:20:43.621Z,89.96
2018-05-27T01:21:43.554Z,89.96
2018-05-27T01:22:43.470Z,90.44
2018-05-27T01:23:43.403Z,91.25
2018-05-27T01:24:43.324Z,91.64
2018-05-27T01:25:43.260Z,92.30
2018-05-27T01:26:43.181Z,92.79
2018-05-27T01:27:43.109Z,93.84
2018-05-27T01:28:43.031Z,95.17
2018-05-27T01:29:42.968Z,95.07
2018-05-27T01:30:42.883Z,95.75
2018-05-27T01:31:42.828Z,96.42
2018-05-27T01:32:42.736Z,97.75
2018-05-27T01:33:42.663Z,98.42
2018-05-27T01:34:42.588Z,99.57
2018-05-27T01:35:42.523Z,99.99
2018-05-27T01:36:42.440Z,99.99
2018-05-27T01:37:42.368Z,99.99
2018-05-27T01:38:42.294Z,99.99
2018-05-27T01:39:42.226Z,99.95
2018-05-27T01:40:42.152Z,99.99
2018-05-27T01:41:42.073Z,99.99
2018-05-27T01:42:42.000Z,99.99
2018-05-27T01:43:41.931Z,99.99
2018-05-27T01:44:41.851Z,99.99
2018-05-27T01:45:41.779Z,99.99
2018-05-27T01:46:41.699Z,99.99
2018-05-27T01:47:41.637Z,99.99
2018-05-27T01:48:41.554Z,99.99
2018-05-27T01:49:41.489Z,99.99
2018-05-27T01:50:41.404Z,99.99
2018-05-27T01:51:41.348Z,99.99
2018-05-27T01:52:41.257Z,99.99
2018-05-27T01:53:41.193Z,99.99
2018-05-27T01:54:41.111Z,99.99
2018-05-27T01:55:41.041Z,97.85
2018-05-27T01:56:40.968Z,95.17
2018-05-27T01:57:40.897Z,93.26
2018-05-27T01:58:40.813Z,92.69
2018-05-27T01:59:40.746Z,93.07
2018-05-27T02:00:40.665Z,94.12
2018-05-27T02:01:40.599Z,95.27
2018-05-27T02:02:40.512Z,96.70
2018-05-27T02:03:40.456Z,96.99
2018-05-27T02:04:40.369Z,97.85
2018-05-27T02:05:40.302Z,97.56
2018-05-27T02:06:40.222Z,99.09
2018-05-27T02:07:40.155Z,98.71
2018-05-27T02:08:40.079Z,98.04
2018-05-27T02:09:40.007Z,97.18
2018-05-27T02:10:39.920Z,96.03
2018-05-27T02:11:39.860Z,96.03
2018-05-27T02:12:39.773Z,93.36
2018-05-27T02:13:39.711Z,92.69
2018-05-27T02:14:39.626Z,92.40
2018-05-27T02:15:39.563Z,94.41
2018-05-27T02:16:39.480Z,96.70
2018-05-27T02:17:39.411Z,97.56
2018-05-27T02:18:39.328Z,97.28
2018-05-27T02:19:39.266Z,97.47
2018-05-27T02:20:39.190Z,97.47
2018-05-27T02:21:39.116Z,96.80
2018-05-27T02:22:39.033Z,96.32
2018-05-27T02:23:38.965Z,95.65
2018-05-27T02:24:38.885Z,96.70
2018-05-27T02:25:38.817Z,98.04
2018-05-27T02:26:38.739Z,98.61
2018-05-27T02:27:38.676Z,99.38
2018-05-27T02:28:38.590Z,98.99
2018-05-27T02:29:38.530Z,97.66
2018-05-27T02:30:38.445Z,98.13
2018-05-27T02:31:38.376Z,98.71
2018-05-27T02:32:38.298Z,98.80
2018-05-27T02:33:38.226Z,98.75
2018-05-27T02:34:38.146Z,99.71
2018-05-27T02:35:38.081Z,99.23
2018-05-27T02:36:37.997Z,98.94
2018-05-27T02:37:37.929Z,99.04
2018-05-27T02:38:37.850Z,99.62
2018-05-27T02:39:37.791Z,98.47
2018-05-27T02:40:37.710Z,98.18
2018-05-27T02:41:37.637Z,98.94
2018-05-27T02:42:37.547Z,98.75
2018-05-27T02:43:37.486Z,98.66
2018-05-27T02:44:37.404Z,98.66
2018-05-27T02:45:37.337Z,97.61
2018-05-27T02:46:37.253Z,96.84
2018-05-27T02:47:37.190Z,97.32
2018-05-27T02:48:37.109Z,97.23
2018-05-27T02:49:37.041Z,96.37
2018-05-27T02:50:36.956Z,96.08
2018-05-27T02:51:36.891Z,96.17
2018-05-27T02:52:36.817Z,96.66
2018-05-27T02:53:36.736Z,95.70
2018-05-27T02:54:36.658Z,94.74
2018-05-27T02:55:36.597Z,94.55
2018-05-27T02:56:36.513Z,93.31
2018-05-27T02:57:36.445Z,93.31
2018-05-27T02:58:36.364Z,93.50
2018-05-27T02:59:36.298Z,93.41
2018-05-27T03:00:36.212Z,94.17
2018-05-27T03:01:36.149Z,96.37
2018-05-27T03:02:36.072Z,97.89
2018-05-27T03:03:36.005Z,98.85
2018-05-27T03:04:35.916Z,99.33
2018-05-27T03:05:35.860Z,99.43
2018-05-27T03:06:35.770Z,99.43
2018-05-27T03:07:35.698Z,99.23
2018-05-27T03:08:35.617Z,99.33
2018-05-27T03:09:35.551Z,99.43
2018-05-27T03:10:35.477Z,98.42
2018-05-27T03:11:35.404Z,97.99
2018-05-27T03:12:35.324Z,94.93
2018-05-27T03:13:35.253Z,93.21
2018-05-27T03:14:35.170Z,93.65
2018-05-27T03:15:35.104Z,93.70
2018-05-27T03:16:35.021Z,94.79
2018-05-27T03:17:34.954Z,95.94
2018-05-27T03:18:34.875Z,96.61
2018-05-27T03:19:34.809Z,97.37
2018-05-27T03:20:34.722Z,97.75
2018-05-27T03:21:34.659Z,98.42
2018-05-27T03:22:34.577Z,98.80
2018-05-27T03:23:34.576Z,99.28
2018-05-27T03:24:34.427Z,99.95
2018-05-27T03:25:34.363Z,99.99
2018-05-27T03:26:34.281Z,99.99
2018-05-27T03:27:34.290Z,99.90
2018-05-27T03:28:34.126Z,99.99
2018-05-27T03:29:34.100Z,99.99
2018-05-27T03:30:33.977Z,99.90
2018-05-27T03:31:34.011Z,99.33
2018-05-27T03:32:33.831Z,99.99
2018-05-27T03:33:33.762Z,99.99
2018-05-27T03:34:33.681Z,99.99
2018-05-27T03:35:33.611Z,99.99
2018-05-27T03:36:33.527Z,99.99
2018-05-27T03:37:33.535Z,99.99
2018-05-27T03:38:33.394Z,99.99
2018-05-27T03:39:33.348Z,99.99
2018-05-27T03:40:33.234Z,99.99
2018-05-27T03:41:33.258Z,99.99
2018-05-27T03:42:33.080Z,99.99
2018-05-27T03:43:33.071Z,99.99
2018-05-27T03:44:32.933Z,99.99
2018-05-27T03:45:32.875Z,99.99
2018-05-27T03:46:32.780Z,99.99
2018-05-27T03:47:32.786Z,99.62
2018-05-27T03:48:32.636Z,99.99
2018-05-27T03:49:32.596Z,99.52
2018-05-27T03:50:32.486Z,97.99
2018-05-27T03:51:32.506Z,96.56
2018-05-27T03:52:32.339Z,96.08
2018-05-27T03:53:32.273Z,97.32
2018-05-27T03:54:32.189Z,97.61
2018-05-27T03:55:32.226Z,97.99
2018-05-27T03:56:32.037Z,96.98
2018-05-27T03:57:32.035Z,97.56
2018-05-27T03:58:31.896Z,98.03
2018-05-27T03:59:31.843Z,98.32
2018-05-27T04:00:31.740Z,98.32
2018-05-27T04:01:31.751Z,97.75
2018-05-27T04:02:31.588Z,97.66
2018-05-27T04:03:31.564Z,99.71
2018-05-27T04:04:31.438Z,99.99
2018-05-27T04:05:31.418Z,99.99
2018-05-27T04:06:31.292Z,99.99
2018-05-27T04:07:31.224Z,99.99
2018-05-27T04:08:31.142Z,99.99
2018-05-27T04:09:31.089Z,99.99
2018-05-27T04:10:30.992Z,99.99
2018-05-27T04:11:31.002Z,99.99
2018-05-27T04:12:30.843Z,99.99
2018-05-27T04:13:30.806Z,99.99
2018-05-27T04:14:30.699Z,99.99
2018-05-27T04:15:30.717Z,99.99
2018-05-27T04:16:30.546Z,99.99
2018-05-27T04:17:30.525Z,99.99
2018-05-27T04:18:30.395Z,99.99
2018-05-27T04:19:30.437Z,99.85
2018-05-27T04:20:30.245Z,98.75
2018-05-27T04:21:30.246Z,98.37
2018-05-27T04:22:30.099Z,98.85
2018-05-27T04:23:30.055Z,99.33
2018-05-27T04:24:29.947Z,99.62
2018-05-27T04:25:29.965Z,99.99
2018-05-27T04:26:29.801Z,99.99
2018-05-27T04:27:29.774Z,99.99
2018-05-27T04:28:29.682Z,99.99
2018-05-27T04:29:29.682Z,99.99
2018-05-27T04:30:29.498Z,99.99
2018-05-27T04:31:29.490Z,99.99
2018-05-27T04:32:29.349Z,99.99
2018-05-27T04:33:29.300Z,99.99
2018-05-27T04:34:29.199Z,99.99
2018-05-27T04:35:29.212Z,99.99
2018-05-27T04:36:29.058Z,99.99
2018-05-27T04:37:29.021Z,99.99
2018-05-27T04:38:28.902Z,99.99
2018-05-27T04:39:29.854Z,99.99
2018-05-27T04:40:28.754Z,99.99
2018-05-27T04:41:28.740Z,99.99
2018-05-27T04:42:28.604Z,99.99
2018-05-27T04:43:28.549Z,99.99
2018-05-27T04:44:28.454Z,99.99
2018-05-27T04:45:28.460Z,99.99
2018-05-27T04:46:28.304Z,99.99
2018-05-27T04:47:28.267Z,99.99
2018-05-27T04:48:28.160Z,99.99
2018-05-27T04:49:28.182Z,99.99
2018-05-27T04:50:28.004Z,99.99
2018-05-27T04:51:28.012Z,99.99
2018-05-27T04:52:27.858Z,99.99
2018-05-27T04:53:27.895Z,99.99
2018-05-27T04:54:27.706Z,99.99
2018-05-27T04:55:27.705Z,99.99
2018-05-27T04:56:27.558Z,99.99
2018-05-27T04:57:27.513Z,99.99
2018-05-27T04:58:27.413Z,99.99
2018-05-27T04:59:27.422Z,99.99
2018-05-27T05:00:27.266Z,99.99
2018-05-27T05:01:27.231Z,99.99
2018-05-27T05:02:27.114Z,99.99
2018-05-27T05:03:27.047Z,99.99
2018-05-27T05:04:26.970Z,99.99
2018-05-27T05:05:26.952Z,99.99
2018-05-27T05:06:26.814Z,99.99
2018-05-27T05:07:26.760Z,99.99
2018-05-27T05:08:26.667Z,99.99
2018-05-27T05:09:26.703Z,99.99
2018-05-27T05:10:26.520Z,99.99
2018-05-27T05:11:26.487Z,99.99
2018-05-27T05:12:26.377Z,99.99
2018-05-27T05:13:26.392Z,99.99
2018-05-27T05:14:26.221Z,99.99
2018-05-27T05:15:26.198Z,99.99
2018-05-27T05:16:26.075Z,99.99
2018-05-27T05:17:26.006Z,99.99
2018-05-27T05:18:25.928Z,99.99
2018-05-27T05:19:25.917Z,99.99
2018-05-27T05:20:25.774Z,99.99
2018-05-27T05:21:25.727Z,99.99
2018-05-27T05:22:25.628Z,99.99
2018-05-27T05:23:25.640Z,99.99
2018-05-27T05:24:25.524Z,99.99
2018-05-27T05:25:25.446Z,99.99
2018-05-27T05:26:25.333Z,99.99
2018-05-27T05:27:25.362Z,99.99
2018-05-27T05:28:25.185Z,99.99
2018-05-27T05:29:25.165Z,99.99
2018-05-27T05:30:25.036Z,99.99
2018-05-27T05:31:25.076Z,99.99
2018-05-27T05:32:24.898Z,99.99
2018-05-27T05:33:24.882Z,99.99
2018-05-27T05:34:24.741Z,99.99
2018-05-27T05:35:24.695Z,99.99
2018-05-27T05:36:24.643Z,99.99
2018-05-27T05:37:24.604Z,99.99
2018-05-27T05:38:24.443Z,99.99
2018-05-27T05:39:24.412Z,99.99
2018-05-27T05:40:24.589Z,99.99
2018-05-27T05:41:24.236Z,99.99
2018-05-27T05:42:24.150Z,99.99
2018-05-27T05:43:25.122Z,99.99
2018-05-27T05:44:24.002Z,99.99
2018-05-27T05:45:24.042Z,99.99
2018-05-27T05:46:23.857Z,99.99
2018-05-27T05:47:23.852Z,99.99
2018-05-27T05:48:23.708Z,99.99
2018-05-27T05:49:23.699Z,99.99
2018-05-27T05:50:23.564Z,99.99
2018-05-27T05:51:23.571Z,99.99
2018-05-27T05:52:23.414Z,99.99
2018-05-27T05:53:23.378Z,99.99
2018-05-27T05:54:23.270Z,99.99
2018-05-27T05:55:23.289Z,99.99
2018-05-27T05:56:23.124Z,99.99
2018-05-27T05:57:24.132Z,99.99
2018-05-27T05:58:22.975Z,99.99
2018-05-27T05:59:23.016Z,99.99
2018-05-27T06:00:22.836Z,99.99
2018-05-27T06:01:22.821Z,99.99
2018-05-27T06:02:22.681Z,99.99
2018-05-27T06:03:22.730Z,99.99
2018-05-27T06:04:22.537Z,99.15
2018-05-27T06:05:24.481Z,99.15
2018-05-27T06:06:22.397Z,99.73
2018-05-27T06:07:22.326Z,99.99
2018-05-27T06:08:22.244Z,99.99
2018-05-27T06:09:22.179Z,99.99
2018-05-27T06:10:22.096Z,99.99
2018-05-27T06:11:22.038Z,99.99
2018-05-27T06:12:21.951Z,99.99
2018-05-27T06:13:21.885Z,99.99
2018-05-27T06:14:21.808Z,99.99
2018-05-27T06:15:21.744Z,99.99
2018-05-27T06:16:21.662Z,99.87
2018-05-27T06:17:21.598Z,99.68
2018-05-27T06:18:21.517Z,99.99
2018-05-27T06:19:21.454Z,99.20
2018-05-27T06:20:21.377Z,99.10
2018-05-27T06:21:21.314Z,97.86
2018-05-27T06:22:21.223Z,97.95
2018-05-27T06:23:21.162Z,99.54
2018-05-27T06:24:21.085Z,98.67
2018-05-27T06:25:21.009Z,98.58
2018-05-27T06:26:20.940Z,98.48
2018-05-27T06:27:20.871Z,97.81
2018-05-27T06:28:20.790Z,95.70
2018-05-27T06:29:20.727Z,94.16
2018-05-27T06:30:20.647Z,94.74
2018-05-27T06:31:20.583Z,94.98
2018-05-27T06:32:20.503Z,95.36
2018-05-27T06:33:20.441Z,96.32
2018-05-27T06:34:20.357Z,95.84
2018-05-27T06:35:20.293Z,94.69
2018-05-27T06:36:20.214Z,95.75
2018-05-27T06:37:20.151Z,95.12
2018-05-27T06:38:20.068Z,95.60
2018-05-27T06:39:20.008Z,95.70
2018-05-27T06:40:19.927Z,94.06
2018-05-27T06:41:19.860Z,94.93
2018-05-27T06:42:19.781Z,94.35
2018-05-27T06:43:19.717Z,92.72
2018-05-27T06:44:19.637Z,92.33
2018-05-27T06:45:19.572Z,92.52
2018-05-27T06:46:19.491Z,92.57
2018-05-27T06:47:19.430Z,92.29
2018-05-27T06:48:19.349Z,92.38
2018-05-27T06:49:19.350Z,91.80
2018-05-27T06:50:19.209Z,91.80
2018-05-27T06:51:19.164Z,91.75
2018-05-27T06:52:19.060Z,91.36
2018-05-27T06:53:19.069Z,89.92
2018-05-27T06:54:18.919Z,89.73
2018-05-27T06:55:18.879Z,90.59
2018-05-27T06:56:18.778Z,90.31
2018-05-27T06:57:19.585Z,92.52
2018-05-27T06:58:18.637Z,91.31
2018-05-27T06:59:18.596Z,91.89
2018-05-27T07:00:18.495Z,91.60
2018-05-27T07:01:18.505Z,92.38
2018-05-27T07:02:18.347Z,91.80
2018-05-27T07:03:18.312Z,91.27
2018-05-27T07:04:18.206Z,90.01
2018-05-27T07:05:18.228Z,88.85
2018-05-27T07:06:18.063Z,86.65
2018-05-27T07:07:18.037Z,85.68
2018-05-27T07:08:17.920Z,84.43
2018-05-27T07:09:17.946Z,84.76
2018-05-27T07:10:17.781Z,84.76
2018-05-27T07:11:17.757Z,84.76
2018-05-27T07:12:17.641Z,84.76
2018-05-27T07:13:17.667Z,84.86
2018-05-27T07:14:17.502Z,84.18
2018-05-27T07:15:17.436Z,85.53
2018-05-27T07:16:17.356Z,86.44
2018-05-27T07:17:17.386Z,85.57
2018-05-27T07:18:17.216Z,84.12
2018-05-27T07:19:17.198Z,84.12
2018-05-27T07:20:17.076Z,84.42
2018-05-27T07:21:17.104Z,84.42
2018-05-27T07:22:16.938Z,82.62
2018-05-27T07:23:16.915Z,81.91
2018-05-27T07:24:16.795Z,82.24
2018-05-27T07:25:16.723Z,82.24
2018-05-27T07:26:16.727Z,83.98
2018-05-27T07:27:16.588Z,83.59
2018-05-27T07:28:16.539Z,82.05
2018-05-27T07:29:16.443Z,82.34
2018-05-27T07:30:16.450Z,82.53
2018-05-27T07:31:16.307Z,83.11
2018-05-27T07:32:16.287Z,81.70
2018-05-27T07:33:16.192Z,80.99
2018-05-27T07:34:16.168Z,80.26
2018-05-27T07:35:16.030Z,80.16
2018-05-27T07:36:15.979Z,79.97
2018-05-27T07:37:15.886Z,79.58
2018-05-27T07:38:15.888Z,82.38
2018-05-27T07:39:15.977Z,80.35
2018-05-27T07:40:15.682Z,79.58
2018-05-27T07:41:15.609Z,79.10
2018-05-27T07:42:15.607Z,80.06
2018-05-27T07:43:15.469Z,78.91
2018-05-27T07:44:15.524Z,78.81
2018-05-27T07:45:15.336Z,78.85
2018-05-27T07:46:15.326Z,80.10
2018-05-27T07:47:15.192Z,81.26
2018-05-27T07:48:15.232Z,82.32
2018-05-27T07:49:15.056Z,80.49
2018-05-27T07:50:15.046Z,79.72
2018-05-27T07:51:14.916Z,79.14
2018-05-27T07:52:14.959Z,79.33
2018-05-27T07:53:14.780Z,78.85
2018-05-27T07:54:14.767Z,77.11
2018-05-27T07:55:14.640Z,77.59
2018-05-27T07:56:14.681Z,78.56
2018-05-27T07:57:14.501Z,79.14
2018-05-27T07:58:14.527Z,79.33
2018-05-27T07:59:14.364Z,78.27
2018-05-27T08:00:14.398Z,77.98
2018-05-27T08:01:14.227Z,78.56
2018-05-27T08:02:14.213Z,79.95
2018-05-27T08:03:14.091Z,79.91
2018-05-27T08:04:14.115Z,79.43
2018-05-27T08:05:13.952Z,77.88
2018-05-27T08:06:13.921Z,78.02
2018-05-27T08:07:13.826Z,77.40
2018-05-27T08:08:13.837Z,79.27
2018-05-27T08:09:13.678Z,78.79
2018-05-27T08:10:13.645Z,79.08
2018-05-27T08:11:13.546Z,78.11
2018-05-27T08:12:13.555Z,78.79
2018-05-27T08:13:13.506Z,79.27
2018-05-27T08:14:13.366Z,78.21
2018-05-27T08:15:13.270Z,77.53
2018-05-27T08:16:13.206Z,77.44
2018-05-27T08:17:13.213Z,77.86
2018-05-27T08:18:13.059Z,76.09
2018-05-27T08:19:13.024Z,76.22
2018-05-27T08:20:12.936Z,77.76
2018-05-27T08:21:12.928Z,78.15
2018-05-27T08:22:12.792Z,77.57
2018-05-27T08:23:12.842Z,75.93
2018-05-27T08:24:12.665Z,76.35
2018-05-27T08:25:12.656Z,75.39
2018-05-27T08:26:12.520Z,75.68
2018-05-27T08:27:12.564Z,74.32
2018-05-27T08:28:12.381Z,74.23
2018-05-27T08:29:12.373Z,73.49
2018-05-27T08:30:12.247Z,73.97
2018-05-27T08:31:12.288Z,74.36
2018-05-27T08:32:12.111Z,74.94
2018-05-27T08:33:12.097Z,75.91
2018-05-27T08:34:11.976Z,74.65
2018-05-27T08:35:12.007Z,74.94
2018-05-27T08:36:11.840Z,74.88
2018-05-27T08:37:11.812Z,73.49
2018-05-27T08:38:11.708Z,74.69
2018-05-27T08:39:11.727Z,74.69
2018-05-27T08:40:11.569Z,75.40
2018-05-27T08:41:11.639Z,74.34
2018-05-27T08:42:11.437Z,72.30
2018-05-27T08:43:11.373Z,73.47
2018-05-27T08:44:11.305Z,71.86
2018-05-27T08:45:11.255Z,69.24
2018-05-27T08:46:11.167Z,67.21
2018-05-27T08:47:11.108Z,67.85
2018-05-27T08:48:11.087Z,66.78
2018-05-27T08:49:11.076Z,68.08
2018-05-27T08:50:10.920Z,67.98
2018-05-27T08:51:10.888Z,67.02
2018-05-27T08:52:10.767Z,67.02
2018-05-27T08:53:10.798Z,67.21
2018-05-27T08:54:10.635Z,68.76
2018-05-27T08:55:10.605Z,66.72
2018-05-27T08:56:10.500Z,66.85
2018-05-27T08:57:10.519Z,67.24
2018-05-27T08:58:10.374Z,66.08
2018-05-27T08:59:10.429Z,66.95
2018-05-27T09:00:10.241Z,65.50
2018-05-27T09:01:10.179Z,64.53
2018-05-27T09:02:11.140Z,63.56
2018-05-27T09:03:10.060Z,63.75
2018-05-27T09:04:10.018Z,63.27
2018-05-27T09:05:09.906Z,62.40
2018-05-27T09:06:09.930Z,63.17
2018-05-27T09:07:09.773Z,63.27
2018-05-27T09:08:09.736Z,63.27
2018-05-27T09:09:09.641Z,62.20
2018-05-27T09:10:09.661Z,63.07
2018-05-27T09:11:09.511Z,63.56
2018-05-27T09:12:09.561Z,63.75
2018-05-27T09:13:09.373Z,63.56
2018-05-27T09:14:09.366Z,65.11
2018-05-27T09:15:09.253Z,66.56
2018-05-27T09:16:09.279Z,66.85
2018-05-27T09:17:09.114Z,65.50
2018-05-27T09:18:09.089Z,65.79
2018-05-27T09:19:09.004Z,66.37
2018-05-27T09:20:09.003Z,67.63
2018-05-27T09:21:08.868Z,68.12
2018-05-27T09:22:08.807Z,66.75
2018-05-27T09:23:08.723Z,66.66
2018-05-27T09:24:08.722Z,68.40
2018-05-27T09:25:08.618Z,72.09
2018-05-27T09:26:08.628Z,71.93
2018-05-27T09:27:08.460Z,64.34
2018-05-27T09:28:08.437Z,67.34
2018-05-27T09:29:08.323Z,63.75
2018-05-27T09:30:08.349Z,62.30
2018-05-27T09:31:08.197Z,65.20
2018-05-27T09:32:08.162Z,63.75
2018-05-27T09:33:08.066Z,64.82
2018-05-27T09:34:08.069Z,63.27
2018-05-27T09:35:07.935Z,63.17
2018-05-27T09:36:07.980Z,61.52
2018-05-27T09:37:07.800Z,61.24
2018-05-27T09:38:07.788Z,61.33
2018-05-27T09:39:07.673Z,63.27
2018-05-27T09:40:07.704Z,64.62
2018-05-27T09:41:07.542Z,65.53
2018-05-27T09:42:07.516Z,63.85
2018-05-27T09:43:07.412Z,64.47
2018-05-27T09:44:07.353Z,62.91
2018-05-27T09:45:07.299Z,62.33
2018-05-27T09:46:07.343Z,61.94
2018-05-27T09:47:07.147Z,63.78
2018-05-27T09:48:07.142Z,62.91
2018-05-27T09:49:07.018Z,63.20
2018-05-27T09:50:07.079Z,63.78
2018-05-27T09:51:06.933Z,64.56
2018-05-27T09:52:06.855Z,65.63
2018-05-27T09:53:06.758Z,63.43
2018-05-27T09:54:06.701Z,63.04
2018-05-27T09:55:06.634Z,63.72
2018-05-27T09:56:06.586Z,66.63
2018-05-27T09:57:06.494Z,67.40
2018-05-27T09:58:06.547Z,67.02
2018-05-27T09:59:06.367Z,63.72
2018-05-27T10:00:06.404Z,63.82
2018-05-27T10:01:06.236Z,62.95
2018-05-27T10:02:06.211Z,61.49
2018-05-27T10:03:06.110Z,62.62
2018-05-27T10:04:06.124Z,62.52
2018-05-27T10:05:05.983Z,64.47
2018-05-27T10:06:05.929Z,65.27
2018-05-27T10:07:05.851Z,64.30
2018-05-27T10:08:05.844Z,62.72
2018-05-27T10:09:05.711Z,63.13
2018-05-27T10:10:05.751Z,61.68
2018-05-27T10:11:05.585Z,60.32
2018-05-27T10:12:05.559Z,60.30
2018-05-27T10:13:05.455Z,60.32
2018-05-27T10:14:05.470Z,61.10
2018-05-27T10:15:05.325Z,61.68
2018-05-27T10:16:05.280Z,61.98
2018-05-27T10:17:05.194Z,61.00
2018-05-27T10:18:05.192Z,61.81
2018-05-27T10:19:05.125Z,63.46
2018-05-27T10:20:05.013Z,60.45
2018-05-27T10:21:05.009Z,59.19
2018-05-27T10:22:04.870Z,61.81
2018-05-27T10:23:04.813Z,62.49
2018-05-27T10:24:04.828Z,60.94
2018-05-27T10:25:04.675Z,56.45
2018-05-27T10:26:04.730Z,58.87
2018-05-27T10:27:04.545Z,60.52
2018-05-27T10:28:04.541Z,60.13
2018-05-27T10:29:04.412Z,61.04
2018-05-27T10:30:04.454Z,62.78
2018-05-27T10:31:04.286Z,61.13
2018-05-27T10:32:04.261Z,60.84
2018-05-27T10:33:04.160Z,61.71
2018-05-27T10:34:04.173Z,60.06
2018-05-27T10:35:04.030Z,61.32
2018-05-27T10:36:04.268Z,60.74
2018-05-27T10:37:03.896Z,60.84
2018-05-27T10:38:03.893Z,61.07
2018-05-27T10:39:03.769Z,59.51
2018-05-27T10:40:03.803Z,60.06
2018-05-27T10:41:03.646Z,60.38
2018-05-27T10:42:03.613Z,58.34
2018-05-27T10:43:03.512Z,58.34
2018-05-27T10:44:03.523Z,59.31
2018-05-27T10:45:03.383Z,57.28
2018-05-27T10:46:03.433Z,56.89
2018-05-27T10:47:03.256Z,56.09
2018-05-27T10:48:03.246Z,56.50
2018-05-27T10:49:03.124Z,56.47
2018-05-27T10:50:03.156Z,57.47
2018-05-27T10:51:02.998Z,59.03
2018-05-27T10:52:02.966Z,63.88
2018-05-27T10:53:02.867Z,63.68
2018-05-27T10:54:02.874Z,60.38
2018-05-27T10:55:02.741Z,57.28
2018-05-27T10:56:02.784Z,57.57
2018-05-27T10:57:02.611Z,58.37
2018-05-27T10:58:02.594Z,58.28
2018-05-27T10:59:02.483Z,57.21
2018-05-27T11:00:02.505Z,56.34
2018-05-27T11:01:02.355Z,54.32
2018-05-27T11:02:02.313Z,53.25
2018-05-27T11:03:02.227Z,54.03
2018-05-27T11:04:02.298Z,55.98
2018-05-27T11:05:02.100Z,57.23
2018-05-27T11:06:02.137Z,58.11
2018-05-27T11:07:01.971Z,57.72
2018-05-27T11:08:01.946Z,56.75
2018-05-27T11:09:01.841Z,58.59
2018-05-27T11:10:01.856Z,61.12
2018-05-27T11:11:01.712Z,61.51
2018-05-27T11:12:01.767Z,60.93
2018-05-27T11:13:01.587Z,62.00
2018-05-27T11:14:01.585Z,61.35
2018-05-27T11:15:01.461Z,59.95
2018-05-27T11:16:01.487Z,60.64
2018-05-27T11:17:01.333Z,60.64
2018-05-27T11:18:01.296Z,60.83
2018-05-27T11:19:01.205Z,60.93
2018-05-27T11:20:01.214Z,61.54
2018-05-27T11:21:01.082Z,61.12
2018-05-27T11:22:01.117Z,58.72
2018-05-27T11:23:00.958Z,59.47
2018-05-27T11:24:00.939Z,62.58
2018-05-27T11:25:00.823Z,63.94
2018-05-27T11:26:00.840Z,63.45
2018-05-27T11:27:00.697Z,63.26
2018-05-27T11:28:00.747Z,62.58
2018-05-27T11:29:00.569Z,61.83
2018-05-27T11:30:00.516Z,61.83
2018-05-27T11:31:00.442Z,61.83
2018-05-27T11:32:00.385Z,61.44
2018-05-27T11:33:00.317Z,60.99
2018-05-27T11:34:00.258Z,60.21
2018-05-27T11:35:00.187Z,59.41
2018-05-27T11:36:00.137Z,58.72
2018-05-27T11:37:00.131Z,58.82
2018-05-27T11:38:00.010Z,61.87
2018-05-27T11:38:59.933Z,62.54
2018-05-27T11:39:59.881Z,63.52
2018-05-27T11:40:59.806Z,64.10
2018-05-27T11:41:59.749Z,62.93
2018-05-27T11:42:59.682Z,63.16
2018-05-27T11:43:59.624Z,61.02
2018-05-27T11:44:59.563Z,57.81
2018-05-27T11:45:59.499Z,59.17
2018-05-27T11:46:59.429Z,59.36
2018-05-27T11:47:59.371Z,59.85
2018-05-27T11:48:59.301Z,60.34
2018-05-27T11:49:59.239Z,60.08
2018-05-27T11:50:59.174Z,60.63
2018-05-27T11:52:00.124Z,55.66
2018-05-27T11:52:59.049Z,54.57
2018-05-27T11:53:58.993Z,54.66
2018-05-27T11:54:58.923Z,58.85
2018-05-27T11:55:58.869Z,60.70
2018-05-27T11:56:58.793Z,60.70
2018-05-27T11:57:58.743Z,61.47
2018-05-27T11:58:58.670Z,62.16
2018-05-27T11:59:58.617Z,61.87
2018-05-27T12:00:58.541Z,60.70
2018-05-27T12:01:58.512Z,60.63
2018-05-27T12:02:58.419Z,55.74
2018-05-27T12:03:58.364Z,53.18
2018-05-27T12:04:58.293Z,54.44
2018-05-27T12:05:58.240Z,54.74
2018-05-27T12:06:58.170Z,57.07
2018-05-27T12:07:58.113Z,57.17
2018-05-27T12:08:58.153Z,57.17
2018-05-27T12:09:57.987Z,57.07
2018-05-27T12:10:57.920Z,58.33
2018-05-27T12:11:57.864Z,56.65
2018-05-27T12:12:57.790Z,58.69
2018-05-27T12:13:57.735Z,59.76
2018-05-27T12:14:57.667Z,56.75
2018-05-27T12:15:57.640Z,56.65
2018-05-27T12:16:57.540Z,57.43
2018-05-27T12:17:57.484Z,58.40
2018-05-27T12:18:57.416Z,56.65
2018-05-27T12:19:57.361Z,58.50
2018-05-27T12:20:57.286Z,57.53
2018-05-27T12:21:57.230Z,55.39
2018-05-27T12:22:57.161Z,54.71
2018-05-27T12:23:57.105Z,56.36
2018-05-27T12:24:57.034Z,56.75
2018-05-27T12:25:56.978Z,57.56
2018-05-27T12:26:56.905Z,58.72
2018-05-27T12:27:56.854Z,54.35
2018-05-27T12:28:56.786Z,53.96
2018-05-27T12:29:56.770Z,54.96
2018-05-27T12:30:56.659Z,57.39
2018-05-27T12:31:56.603Z,58.85
2018-05-27T12:32:56.537Z,54.69
2018-05-27T12:33:56.474Z,54.40
2018-05-27T12:34:56.406Z,54.69
2018-05-27T12:35:56.350Z,54.89
2018-05-27T12:36:56.319Z,54.79
2018-05-27T12:37:56.226Z,54.62
2018-05-27T12:38:56.156Z,52.36
2018-05-27T12:39:56.099Z,54.40
2018-05-27T12:40:56.030Z,56.15
2018-05-27T12:41:55.976Z,55.86
2018-05-27T12:42:55.905Z,51.94
2018-05-27T12:43:55.859Z,53.11
2018-05-27T12:44:55.783Z,53.50
2018-05-27T12:45:55.736Z,52.04
2018-05-27T12:46:55.655Z,52.43
2018-05-27T12:47:55.599Z,52.04
2018-05-27T12:48:55.531Z,53.30
2018-05-27T12:49:55.474Z,54.15
2018-05-27T12:50:55.418Z,56.87
2018-05-27T12:51:55.354Z,57.75